Time,TemperatureF,DewpointF,PressureIn,WindDirection,WindDirectionDegrees,WindSpeedMPH,WindSpeedGustMPH,Humidity,HourlyPrecipIn,Conditions,Clouds,dailyrainin,SoftwareType,DateUTC
2013-08-24 00:47:00,62.3,53.5,30.26,North,360,0.0,7.0,73,0.00,,,0.10,Wunderground v.1.15,2013-08-24 04:47:00,
2013-08-24 00:52:00,62.4,54.0,30.26,North,360,0.0,7.0,74,0.00,,,0.10,Wunderground v.1.15,2013-08-24 04:52:00,
2013-08-24 01:22:00,61.6,54.3,30.26,North,360,1.0,1.0,77,0.00,,,0.10,Wunderground v.1.15,2013-08-24 05:22:00,
2013-08-24 01:32:00,61.2,55.0,30.26,North,360,0.0,7.0,80,0.00,,,0.10,Wunderground v.1.15,2013-08-24 05:32:00,
2013-08-24 01:47:00,60.7,53.8,30.27,North,360,0.0,3.0,78,0.00,,,0.10,Wunderground v.1.15,2013-08-24 05:47:00,
2013-08-24 03:52:00,59.3,55.4,30.28,North,360,1.0,3.0,87,0.00,,,0.10,Wunderground v.1.15,2013-08-24 07:52:00,
2013-08-24 04:12:00,58.0,56.0,30.30,North,360,0.0,2.0,93,0.00,,,0.10,Wunderground v.1.15,2013-08-24 08:12:00,
2013-08-24 06:23:00,56.0,55.7,30.34,North,360,1.0,4.0,99,0.00,,,0.10,Wunderground v.1.15,2013-08-24 10:23:00,
2013-08-24 06:48:00,57.2,56.9,30.35,North,360,0.0,5.0,99,0.00,,,0.10,Wunderground v.1.15,2013-08-24 10:48:00,
2013-08-24 07:23:00,58.4,58.4,30.36,North,360,0.0,5.0,100,0.00,,,0.10,Wunderground v.1.15,2013-08-24 11:23:00,
2013-08-24 07:48:00,58.0,57.7,30.37,North,360,0.0,0.0,99,0.00,,,0.10,Wunderground v.1.15,2013-08-24 11:48:00,
2013-08-24 09:38:00,60.1,59.8,30.41,North,360,0.0,5.0,99,0.00,,,0.00,Wunderground v.1.15,2013-08-24 13:38:00,
2013-08-24 10:33:00,61.5,60.6,30.41,North,360,0.0,5.0,97,0.00,,,0.00,Wunderground v.1.15,2013-08-24 14:33:00,
2013-08-24 10:43:00,61.8,60.6,30.41,North,360,1.0,3.0,96,0.00,,,0.00,Wunderground v.1.15,2013-08-24 14:43:00,
2013-08-24 11:33:00,67.1,62.1,30.40,North,360,1.0,3.0,84,0.00,,,0.00,Wunderground v.1.15,2013-08-24 15:33:00,
2013-08-24 12:18:00,67.1,62.8,30.40,North,360,0.0,5.0,86,0.00,,,0.00,Wunderground v.1.15,2013-08-24 16:18:00,
2013-08-24 12:28:00,68.4,62.0,30.40,NNE,12,3.0,5.0,80,0.00,,,0.00,Wunderground v.1.15,2013-08-24 16:28:00,
2013-08-24 12:58:00,68.9,61.8,30.38,ENE,65,3.0,9.0,78,0.00,,,0.00,Wunderground v.1.15,2013-08-24 16:58:00,
2013-08-24 13:18:00,69.3,62.1,30.38,ENE,65,2.0,2.0,78,0.00,,,0.00,Wunderground v.1.15,2013-08-24 17:18:00,
2013-08-24 15:33:00,74.0,61.9,30.35,East,83,1.0,9.0,66,0.00,,,0.00,Wunderground v.1.15,2013-08-24 19:33:00,
2013-08-24 16:43:00,75.6,59.3,30.36,East,83,1.0,1.0,57,0.00,,,0.00,Wunderground v.1.15,2013-08-24 20:43:00,
2013-08-24 17:42:00,74.6,56.9,30.36,East,83,2.0,2.0,54,0.00,,,0.00,Wunderground v.1.15,2013-08-24 21:42:00,
2013-08-24 18:07:00,72.1,56.0,30.36,East,83,0.0,6.0,57,0.00,,,0.00,Wunderground v.1.15,2013-08-24 22:07:00,
2013-08-24 18:42:00,72.5,56.4,30.36,East,83,0.0,6.0,57,0.00,,,0.00,Wunderground v.1.15,2013-08-24 22:42:00,
2013-08-24 19:32:00,69.8,55.3,30.37,East,83,0.0,6.0,60,0.00,,,0.00,Wunderground v.1.15,2013-08-24 23:32:00,
2013-08-24 19:57:00,68.4,55.7,30.37,East,83,1.0,4.0,64,0.00,,,0.00,Wunderground v.1.15,2013-08-24 23:57:00,
2013-08-24 20:07:00,68.1,55.9,30.38,East,83,1.0,4.0,65,0.00,,,0.00,Wunderground v.1.15,2013-08-25 00:07:00,
2013-08-24 20:17:00,67.8,56.0,30.38,East,83,0.0,4.0,66,0.00,,,0.00,Wunderground v.1.15,2013-08-25 00:17:00,
2013-08-24 20:32:00,67.1,56.2,30.39,East,83,0.0,4.0,68,0.00,,,0.00,Wunderground v.1.15,2013-08-25 00:32:00,
2013-08-24 20:42:00,66.8,55.9,30.39,East,83,0.0,5.0,68,0.00,,,0.00,Wunderground v.1.15,2013-08-25 00:42:00,
2013-08-24 20:57:00,66.6,56.1,30.40,East,83,0.0,5.0,69,0.00,,,0.00,Wunderground v.1.15,2013-08-25 00:57:00,
2013-08-24 21:07:00,66.4,55.9,30.41,East,83,0.0,5.0,69,0.00,,,0.00,Wunderground v.1.15,2013-08-25 01:07:00,
2013-08-24 21:57:00,65.8,56.5,30.41,East,83,0.0,0.0,72,0.00,,,0.00,Wunderground v.1.15,2013-08-25 01:57:00,
2013-08-24 22:12:00,66.3,54.6,30.41,East,83,0.0,0.0,66,0.00,,,0.00,Wunderground v.1.15,2013-08-25 02:12:00,
2013-08-24 22:22:00,66.3,54.2,30.41,East,83,0.0,0.0,65,0.00,,,0.00,Wunderground v.1.15,2013-08-25 02:22:00,
2013-08-24 23:37:00,63.4,56.1,30.42,East,83,1.0,1.0,77,0.00,,,0.00,Wunderground v.1.15,2013-08-25 03:37:00,
2013-08-24 23:47:00,63.2,56.2,30.42,East,83,0.0,3.0,78,0.00,,,0.00,Wunderground v.1.15,2013-08-25 03:47:00,